F/v_l'omerta — FHXG — position and weather

sailwx.info

Track history (hours):
 
Tides and Currents Weather Stations Pressure Air Temp Water Temp Dewpoint Dewpoint Depression Visibility Wind Speed Wind Dir Waves Ship Positions

F/v_l'omerta

Last reported at 2017-May-27 07:09 UTC. Time now 2017-May-28 14:22 UTC.
Position N 46°21' W 002°16'.

Length 18 m.

Type: Fishing. MMSI: 227903000.

Date/timePositionNaut miles runAvg speedWind from/ knotsBaromVisibWave heightAir tempDewpointWater temp
2017-May-27 07:09N 46°21' W 002°16'110.1
2017-May-27 07:00N 46°22' W 002°14'5 9.8
2017-May-27 06:30N 46°24' W 002°08'5 9.6
2017-May-27 06:00N 46°25' W 002°01'5 9.3
2017-May-27 05:30N 46°27' W 001°55'5 9.2
2017-May-27 05:00N 46°28' W 001°48'2 3.5
2017-May-27 04:30N 46°30' W 001°47'0 0.0
2017-May-26 14:22N 46°30' W 001°47'0 0.0
2017-May-26 13:30N 46°30' W 001°47'0 0.0
2017-May-26 13:00N 46°30' W 001°47'0 0.0
2017-May-26 12:30N 46°30' W 001°47'0 0.0
2017-May-26 12:00N 46°30' W 001°47'0 0.0
2017-May-26 11:30N 46°30' W 001°47'0 0.0
2017-May-26 11:00N 46°30' W 001°47'0 0.0
2017-May-26 10:30N 46°30' W 001°47'0 0.0
2017-May-26 10:00N 46°30' W 001°47'0 0.0
2017-May-26 09:30N 46°30' W 001°47'0 0.0
2017-May-26 09:00N 46°30' W 001°47'0 0.0
2017-May-26 08:30N 46°30' W 001°47'0 0.0
2017-May-26 08:00N 46°30' W 001°47'0 0.0
2017-May-26 07:30N 46°30' W 001°47'0 0.0
2017-May-26 07:00N 46°30' W 001°47'0 0.0
2017-May-26 06:30N 46°30' W 001°47'0 0.0
2017-May-26 06:00N 46°30' W 001°47'0 0.0
2017-May-26 05:30N 46°30' W 001°47'0 0.0
2017-May-26 05:00N 46°30' W 001°47'0 0.0
2017-May-26 03:04N 46°30' W 001°47'0 0.0
2017-May-26 03:00N 46°30' W 001°47'0 0.2
2017-May-26 02:30N 46°30' W 001°47'0 0.0
2017-May-26 02:00N 46°30' W 001°47'0 0.0
2017-May-26 01:30N 46°30' W 001°47'0 0.4
2017-May-26 01:00N 46°30' W 001°47'0 0.4
2017-May-26 00:30N 46°30' W 001°47'3 6.1
2017-May-26 00:00N 46°28' W 001°50'5 9.5
2017-May-25 23:30N 46°26' W 001°57'5 9.4
2017-May-25 23:00N 46°24' W 002°03'5 9.3
2017-May-25 22:30N 46°23' W 002°10'11 0.3
2017-May-24 08:04N 46°25' W 002°25'1 9.1
2017-May-24 08:00N 46°25' W 002°24'12 9.3
2017-May-24 06:43N 46°27' W 002°07'2 9.5
2017-May-24 06:30N 46°27' W 002°04'5 9.5
2017-May-24 06:00N 46°27' W 001°57'5 9.6
2017-May-24 05:30N 46°28' W 001°50'3 5.7
2017-May-24 05:00N 46°30' W 001°47'0 0.0
2017-May-24 04:30N 46°30' W 001°47'0 0.0
2017-May-24 04:00N 46°30' W 001°47'0 0.0
2017-May-24 03:30N 46°30' W 001°47'0 0.0
2017-May-24 03:00N 46°30' W 001°47'0 0.0
2017-May-24 02:30N 46°30' W 001°47'0 0.0
2017-May-24 02:00N 46°30' W 001°47'0 0.0
2017-May-24 01:30N 46°30' W 001°47'0 0.0
2017-May-24 01:00N 46°30' W 001°47'0 0.0
2017-May-24 00:30N 46°30' W 001°47'0 0.3
2017-May-24 00:00N 46°30' W 001°47'2 4.2
2017-May-23 23:30N 46°28' W 001°49'5 9.4
2017-May-23 23:00N 46°26' W 001°55'5 9.4
2017-May-23 22:30N 46°24' W 002°01'5 9.1
2017-May-23 22:00N 46°21' W 002°06'5 9.0
2017-May-23 21:24N 46°19' W 002°13'4 9.0
2017-May-23 20:56N 46°17' W 002°19'4 8.8
2017-May-23 20:29N 46°15' W 002°24'4 8.7
2017-May-23 20:00N 46°13' W 002°29'4 8.4
2017-May-23 19:30N 46°11' W 002°34'4 8.4
2017-May-23 19:00N 46°09' W 002°40'8 3.4
2017-May-23 16:47N 46°03' W 002°45'29 0.8
2017-May-22 03:44N 45°56' W 002°04'2 9.5
2017-May-22 03:29N 45°57' W 002°01'5 9.7
2017-May-22 03:00N 45°59' W 001°54'5 9.6
2017-May-22 02:30N 46°00' W 001°48'5 9.6
2017-May-22 02:00N 46°02' W 001°41'5 9.6
2017-May-22 01:29N 46°03' W 001°34'5 9.5
2017-May-22 01:00N 46°04' W 001°28'4 8.9
2017-May-22 00:30N 46°06' W 001°22'4 8.8
2017-May-22 00:00N 46°07' W 001°16'3 5.1
2017-May-21 23:30N 46°09' W 001°13'0 0.0
2017-May-21 23:00N 46°09' W 001°13'0 0.3
2017-May-21 22:30N 46°09' W 001°13'0 0.0
2017-May-21 22:00N 46°09' W 001°13'1 1.8
2017-May-21 21:30N 46°09' W 001°14'5 9.1
2017-May-21 21:00N 46°06' W 001°20'510.2
2017-May-21 20:30N 46°05' W 001°27'5 9.7
2017-May-21 20:00N 46°04' W 001°34'  
2017-May-17 08:23N 45°47' W 001°60'4 9.3
2017-May-17 07:59N 45°51' W 001°58'5 9.4
2017-May-17 07:30N 45°55' W 001°57'  
Track history (hours):
 
Tides and Currents Weather Stations Pressure Air Temp Water Temp Dewpoint Dewpoint Depression Visibility Wind Speed Wind Dir Waves Ship Positions

F/v_l'omerta

Last reported at 2017-May-27 07:09 UTC. Time now 2017-May-28 14:22 UTC.
Position N 46°21' W 002°16'.

Length 18 m.

Type: Fishing. MMSI: 227903000.

Date/timePositionNaut miles runAvg speedWind from/ knotsBaromVisibWave heightAir tempDewpointWater temp
2017-May-27 07:09N 46°21' W 002°16'110.1
2017-May-27 07:00N 46°22' W 002°14'5 9.8
2017-May-27 06:30N 46°24' W 002°08'5 9.6
2017-May-27 06:00N 46°25' W 002°01'5 9.3
2017-May-27 05:30N 46°27' W 001°55'5 9.2
2017-May-27 05:00N 46°28' W 001°48'2 3.5
2017-May-27 04:30N 46°30' W 001°47'0 0.0
2017-May-26 14:22N 46°30' W 001°47'0 0.0
2017-May-26 13:30N 46°30' W 001°47'0 0.0
2017-May-26 13:00N 46°30' W 001°47'0 0.0
2017-May-26 12:30N 46°30' W 001°47'0 0.0
2017-May-26 12:00N 46°30' W 001°47'0 0.0
2017-May-26 11:30N 46°30' W 001°47'0 0.0
2017-May-26 11:00N 46°30' W 001°47'0 0.0
2017-May-26 10:30N 46°30' W 001°47'0 0.0
2017-May-26 10:00N 46°30' W 001°47'0 0.0
2017-May-26 09:30N 46°30' W 001°47'0 0.0
2017-May-26 09:00N 46°30' W 001°47'0 0.0
2017-May-26 08:30N 46°30' W 001°47'0 0.0
2017-May-26 08:00N 46°30' W 001°47'0 0.0
2017-May-26 07:30N 46°30' W 001°47'0 0.0
2017-May-26 07:00N 46°30' W 001°47'0 0.0
2017-May-26 06:30N 46°30' W 001°47'0 0.0
2017-May-26 06:00N 46°30' W 001°47'0 0.0
2017-May-26 05:30N 46°30' W 001°47'0 0.0
2017-May-26 05:00N 46°30' W 001°47'0 0.0
2017-May-26 03:04N 46°30' W 001°47'0 0.0
2017-May-26 03:00N 46°30' W 001°47'0 0.2
2017-May-26 02:30N 46°30' W 001°47'0 0.0
2017-May-26 02:00N 46°30' W 001°47'0 0.0
2017-May-26 01:30N 46°30' W 001°47'0 0.4
2017-May-26 01:00N 46°30' W 001°47'0 0.4
2017-May-26 00:30N 46°30' W 001°47'3 6.1
2017-May-26 00:00N 46°28' W 001°50'5 9.5
2017-May-25 23:30N 46°26' W 001°57'5 9.4
2017-May-25 23:00N 46°24' W 002°03'5 9.3
2017-May-25 22:30N 46°23' W 002°10'11 0.3
2017-May-24 08:04N 46°25' W 002°25'1 9.1
2017-May-24 08:00N 46°25' W 002°24'12 9.3
2017-May-24 06:43N 46°27' W 002°07'2 9.5
2017-May-24 06:30N 46°27' W 002°04'5 9.5
2017-May-24 06:00N 46°27' W 001°57'5 9.6
2017-May-24 05:30N 46°28' W 001°50'3 5.7
2017-May-24 05:00N 46°30' W 001°47'0 0.0
2017-May-24 04:30N 46°30' W 001°47'0 0.0
2017-May-24 04:00N 46°30' W 001°47'0 0.0
2017-May-24 03:30N 46°30' W 001°47'0 0.0
2017-May-24 03:00N 46°30' W 001°47'0 0.0
2017-May-24 02:30N 46°30' W 001°47'0 0.0
2017-May-24 02:00N 46°30' W 001°47'0 0.0
2017-May-24 01:30N 46°30' W 001°47'0 0.0
2017-May-24 01:00N 46°30' W 001°47'0 0.0
2017-May-24 00:30N 46°30' W 001°47'0 0.3
2017-May-24 00:00N 46°30' W 001°47'2 4.2
2017-May-23 23:30N 46°28' W 001°49'5 9.4
2017-May-23 23:00N 46°26' W 001°55'5 9.4
2017-May-23 22:30N 46°24' W 002°01'5 9.1
2017-May-23 22:00N 46°21' W 002°06'5 9.0
2017-May-23 21:24N 46°19' W 002°13'4 9.0
2017-May-23 20:56N 46°17' W 002°19'4 8.8
2017-May-23 20:29N 46°15' W 002°24'4 8.7
2017-May-23 20:00N 46°13' W 002°29'4 8.4
2017-May-23 19:30N 46°11' W 002°34'4 8.4
2017-May-23 19:00N 46°09' W 002°40'8 3.4
2017-May-23 16:47N 46°03' W 002°45'29 0.8
2017-May-22 03:44N 45°56' W 002°04'2 9.5
2017-May-22 03:29N 45°57' W 002°01'5 9.7
2017-May-22 03:00N 45°59' W 001°54'5 9.6
2017-May-22 02:30N 46°00' W 001°48'5 9.6
2017-May-22 02:00N 46°02' W 001°41'5 9.6
2017-May-22 01:29N 46°03' W 001°34'5 9.5
2017-May-22 01:00N 46°04' W 001°28'4 8.9
2017-May-22 00:30N 46°06' W 001°22'4 8.8
2017-May-22 00:00N 46°07' W 001°16'3 5.1
2017-May-21 23:30N 46°09' W 001°13'0 0.0
2017-May-21 23:00N 46°09' W 001°13'0 0.3
2017-May-21 22:30N 46°09' W 001°13'0 0.0
2017-May-21 22:00N 46°09' W 001°13'1 1.8
2017-May-21 21:30N 46°09' W 001°14'5 9.1
2017-May-21 21:00N 46°06' W 001°20'510.2
2017-May-21 20:30N 46°05' W 001°27'5 9.7
2017-May-21 20:00N 46°04' W 001°34'  
2017-May-17 08:23N 45°47' W 001°60'4 9.3
2017-May-17 07:59N 45°51' W 001°58'5 9.4
2017-May-17 07:30N 45°55' W 001°57'  

Dump ship's entire track history